Terminal Aerodrome Forecast
Issued by NWS

Home | Current Version | Previous Version | Text Only | Print | Product List | Glossary On
Versions: 1 2 3 4 5 6 7 8 9 10 11 12 13 14 15
541
FTUS42 KGSP 220540
TAFGMU
TAF
KGMU 220540Z 2206/2306 05005KT P6SM -SHRA OVC020
     FM221000 04005KT 5SM BR OVC015
      TEMPO 2210/2212 2SM -SHRA BR OVC007
     FM221200 04005KT 3SM BR OVC008
     FM221800 05005KT P6SM OVC020 PROB30 2219/2220 4SM -SHRA OVC007=

USA.gov is the U.S. government's official web portal to all federal, state and local government web resources and services.